sensor_id;sensor_type;location;lat;lon;timestamp;P1;durP1;ratioP1;P2;durP2;ratioP2
39176;SDS011;24904;52.208;21.192;2022-09-06T00:04:48;7.30;;;2.30;;
39176;SDS011;24904;52.208;21.192;2022-09-06T00:09:53;5.20;;;1.70;;
39176;SDS011;24904;52.208;21.192;2022-09-06T00:14:58;7.80;;;2.70;;
39176;SDS011;24904;52.208;21.192;2022-09-06T00:20:04;7.60;;;2.10;;
39176;SDS011;24904;52.208;21.192;2022-09-06T00:25:10;5.90;;;2.10;;
39176;SDS011;24904;52.208;21.192;2022-09-06T00:30:15;5.70;;;1.90;;
39176;SDS011;24904;52.208;21.192;2022-09-06T00:35:21;5.60;;;1.80;;
39176;SDS011;24904;52.208;21.192;2022-09-06T00:40:27;5.80;;;1.80;;
39176;SDS011;24904;52.208;21.192;2022-09-06T00:45:36;7.50;;;2.10;;
39176;SDS011;24904;52.208;21.192;2022-09-06T00:50:42;7.80;;;1.70;;
39176;SDS011;24904;52.208;21.192;2022-09-06T00:55:49;4.40;;;1.60;;
39176;SDS011;24904;52.208;21.192;2022-09-06T01:00:54;4.10;;;2.00;;
39176;SDS011;24904;52.208;21.192;2022-09-06T01:06:03;4.50;;;1.90;;
39176;SDS011;24904;52.208;21.192;2022-09-06T01:11:25;6.60;;;2.10;;
39176;SDS011;24904;52.208;21.192;2022-09-06T01:16:43;3.70;;;1.80;;
39176;SDS011;24904;52.208;21.192;2022-09-06T01:21:54;5.50;;;2.40;;
39176;SDS011;24904;52.208;21.192;2022-09-06T01:32:59;4.40;;;2.00;;
39176;SDS011;24904;52.208;21.192;2022-09-06T01:38:12;3.30;;;1.50;;
39176;SDS011;24904;52.208;21.192;2022-09-06T01:43:20;4.90;;;1.80;;
39176;SDS011;24904;52.208;21.192;2022-09-06T01:53:51;3.40;;;1.50;;
39176;SDS011;24904;52.208;21.192;2022-09-06T01:59:13;3.10;;;1.80;;
39176;SDS011;24904;52.208;21.192;2022-09-06T02:04:35;7.40;;;2.30;;
39176;SDS011;24904;52.208;21.192;2022-09-06T02:09:47;3.40;;;1.80;;
39176;SDS011;24904;52.208;21.192;2022-09-06T02:14:56;3.90;;;2.20;;
39176;SDS011;24904;52.208;21.192;2022-09-06T02:20:05;3.50;;;1.80;;
39176;SDS011;24904;52.208;21.192;2022-09-06T02:25:17;3.30;;;1.80;;
39176;SDS011;24904;52.208;21.192;2022-09-06T02:30:27;6.40;;;1.60;;
39176;SDS011;24904;52.208;21.192;2022-09-06T02:35:39;2.30;;;1.70;;
39176;SDS011;24904;52.208;21.192;2022-09-06T02:40:47;5.90;;;1.90;;
39176;SDS011;24904;52.208;21.192;2022-09-06T02:45:54;4.20;;;1.60;;
39176;SDS011;24904;52.208;21.192;2022-09-06T02:51:02;5.50;;;1.90;;
39176;SDS011;24904;52.208;21.192;2022-09-06T02:56:07;4.30;;;1.70;;
39176;SDS011;24904;52.208;21.192;2022-09-06T03:01:13;4.40;;;2.00;;
39176;SDS011;24904;52.208;21.192;2022-09-06T03:06:18;3.70;;;2.00;;
39176;SDS011;24904;52.208;21.192;2022-09-06T03:11:24;9.40;;;2.40;;
39176;SDS011;24904;52.208;21.192;2022-09-06T03:16:29;6.00;;;2.40;;
39176;SDS011;24904;52.208;21.192;2022-09-06T03:21:34;4.80;;;2.10;;
39176;SDS011;24904;52.208;21.192;2022-09-06T03:26:39;4.30;;;1.70;;
39176;SDS011;24904;52.208;21.192;2022-09-06T03:31:44;3.90;;;2.00;;
39176;SDS011;24904;52.208;21.192;2022-09-06T03:36:49;4.60;;;1.70;;
39176;SDS011;24904;52.208;21.192;2022-09-06T03:41:54;6.80;;;1.80;;
39176;SDS011;24904;52.208;21.192;2022-09-06T03:47:00;12.40;;;2.70;;
39176;SDS011;24904;52.208;21.192;2022-09-06T03:52:05;4.50;;;1.90;;
39176;SDS011;24904;52.208;21.192;2022-09-06T03:57:10;6.40;;;2.50;;
39176;SDS011;24904;52.208;21.192;2022-09-06T04:02:15;5.40;;;1.90;;
39176;SDS011;24904;52.208;21.192;2022-09-06T04:07:20;3.10;;;1.70;;
39176;SDS011;24904;52.208;21.192;2022-09-06T04:12:26;3.80;;;1.60;;
39176;SDS011;24904;52.208;21.192;2022-09-06T04:17:31;3.80;;;2.20;;
39176;SDS011;24904;52.208;21.192;2022-09-06T04:22:36;7.20;;;1.70;;
39176;SDS011;24904;52.208;21.192;2022-09-06T04:27:41;4.90;;;1.90;;
39176;SDS011;24904;52.208;21.192;2022-09-06T04:32:47;11.90;;;1.70;;
39176;SDS011;24904;52.208;21.192;2022-09-06T04:37:52;4.40;;;1.50;;
39176;SDS011;24904;52.208;21.192;2022-09-06T04:42:57;3.20;;;1.70;;
39176;SDS011;24904;52.208;21.192;2022-09-06T04:48:02;6.50;;;2.10;;
39176;SDS011;24904;52.208;21.192;2022-09-06T04:53:07;4.70;;;1.70;;
39176;SDS011;24904;52.208;21.192;2022-09-06T04:58:13;3.20;;;1.70;;
39176;SDS011;24904;52.208;21.192;2022-09-06T05:03:21;2.80;;;1.50;;
39176;SDS011;24904;52.208;21.192;2022-09-06T05:08:26;3.20;;;1.70;;
39176;SDS011;24904;52.208;21.192;2022-09-06T05:13:31;10.70;;;1.80;;
39176;SDS011;24904;52.208;21.192;2022-09-06T05:18:37;10.10;;;1.90;;
39176;SDS011;24904;52.208;21.192;2022-09-06T05:23:42;8.20;;;1.60;;
39176;SDS011;24904;52.208;21.192;2022-09-06T05:28:47;6.70;;;1.60;;
39176;SDS011;24904;52.208;21.192;2022-09-06T05:33:53;3.80;;;1.60;;
39176;SDS011;24904;52.208;21.192;2022-09-06T05:38:59;4.50;;;1.80;;
39176;SDS011;24904;52.208;21.192;2022-09-06T05:44:04;4.40;;;1.70;;
39176;SDS011;24904;52.208;21.192;2022-09-06T05:49:09;3.80;;;1.40;;
39176;SDS011;24904;52.208;21.192;2022-09-06T05:54:15;8.60;;;2.00;;
39176;SDS011;24904;52.208;21.192;2022-09-06T05:59:21;5.00;;;1.60;;
39176;SDS011;24904;52.208;21.192;2022-09-06T06:04:26;4.90;;;1.80;;
39176;SDS011;24904;52.208;21.192;2022-09-06T06:09:31;7.60;;;1.50;;
39176;SDS011;24904;52.208;21.192;2022-09-06T06:14:36;10.80;;;1.90;;
39176;SDS011;24904;52.208;21.192;2022-09-06T06:19:41;4.50;;;1.60;;
39176;SDS011;24904;52.208;21.192;2022-09-06T06:24:47;6.40;;;1.50;;
39176;SDS011;24904;52.208;21.192;2022-09-06T06:29:52;6.80;;;1.50;;
39176;SDS011;24904;52.208;21.192;2022-09-06T06:34:57;6.00;;;1.50;;
39176;SDS011;24904;52.208;21.192;2022-09-06T06:40:02;7.10;;;1.40;;
39176;SDS011;24904;52.208;21.192;2022-09-06T06:45:09;2.50;;;1.20;;
39176;SDS011;24904;52.208;21.192;2022-09-06T06:50:14;2.10;;;1.00;;
39176;SDS011;24904;52.208;21.192;2022-09-06T06:55:19;3.80;;;1.30;;
39176;SDS011;24904;52.208;21.192;2022-09-06T07:00:24;8.00;;;1.10;;
39176;SDS011;24904;52.208;21.192;2022-09-06T07:05:30;2.30;;;1.10;;
39176;SDS011;24904;52.208;21.192;2022-09-06T07:10:35;8.30;;;1.30;;
39176;SDS011;24904;52.208;21.192;2022-09-06T07:15:40;6.20;;;1.60;;
39176;SDS011;24904;52.208;21.192;2022-09-06T07:20:45;2.10;;;1.00;;
39176;SDS011;24904;52.208;21.192;2022-09-06T07:25:50;4.00;;;1.00;;
39176;SDS011;24904;52.208;21.192;2022-09-06T07:30:55;1.90;;;0.90;;
39176;SDS011;24904;52.208;21.192;2022-09-06T07:36:03;2.20;;;0.90;;
39176;SDS011;24904;52.208;21.192;2022-09-06T07:41:09;3.90;;;1.00;;
39176;SDS011;24904;52.208;21.192;2022-09-06T07:46:15;5.00;;;1.30;;
39176;SDS011;24904;52.208;21.192;2022-09-06T07:51:20;6.40;;;1.00;;
39176;SDS011;24904;52.208;21.192;2022-09-06T07:56:26;5.80;;;1.10;;
39176;SDS011;24904;52.208;21.192;2022-09-06T08:01:31;4.40;;;0.90;;
39176;SDS011;24904;52.208;21.192;2022-09-06T08:06:38;4.40;;;0.90;;
39176;SDS011;24904;52.208;21.192;2022-09-06T08:11:44;5.10;;;1.00;;
39176;SDS011;24904;52.208;21.192;2022-09-06T08:16:51;34.70;;;1.50;;
39176;SDS011;24904;52.208;21.192;2022-09-06T08:21:56;1.10;;;0.80;;
39176;SDS011;24904;52.208;21.192;2022-09-06T08:27:02;2.90;;;0.90;;
39176;SDS011;24904;52.208;21.192;2022-09-06T08:32:08;1.10;;;0.50;;
39176;SDS011;24904;52.208;21.192;2022-09-06T08:37:13;1.70;;;0.60;;
39176;SDS011;24904;52.208;21.192;2022-09-06T08:42:18;3.40;;;0.80;;
39176;SDS011;24904;52.208;21.192;2022-09-06T08:47:23;3.60;;;0.80;;
39176;SDS011;24904;52.208;21.192;2022-09-06T08:52:35;5.10;;;0.90;;
39176;SDS011;24904;52.208;21.192;2022-09-06T08:57:54;1.20;;;0.70;;
39176;SDS011;24904;52.208;21.192;2022-09-06T09:03:08;2.80;;;0.80;;
39176;SDS011;24904;52.208;21.192;2022-09-06T09:08:20;5.50;;;0.70;;
39176;SDS011;24904;52.208;21.192;2022-09-06T09:13:31;4.70;;;0.80;;
39176;SDS011;24904;52.208;21.192;2022-09-06T09:18:42;3.40;;;0.80;;
39176;SDS011;24904;52.208;21.192;2022-09-06T09:23:51;2.50;;;0.60;;
39176;SDS011;24904;52.208;21.192;2022-09-06T09:29:04;3.00;;;0.70;;
39176;SDS011;24904;52.208;21.192;2022-09-06T09:34:12;1.00;;;0.50;;
39176;SDS011;24904;52.208;21.192;2022-09-06T09:39:33;2.00;;;0.60;;
39176;SDS011;24904;52.208;21.192;2022-09-06T09:44:42;3.60;;;0.60;;
39176;SDS011;24904;52.208;21.192;2022-09-06T09:49:47;1.40;;;0.70;;
39176;SDS011;24904;52.208;21.192;2022-09-06T09:54:54;1.00;;;0.60;;
39176;SDS011;24904;52.208;21.192;2022-09-06T10:00:03;1.10;;;0.60;;
39176;SDS011;24904;52.208;21.192;2022-09-06T10:05:18;2.30;;;0.60;;
39176;SDS011;24904;52.208;21.192;2022-09-06T10:10:25;2.30;;;0.70;;
39176;SDS011;24904;52.208;21.192;2022-09-06T10:15:32;2.20;;;0.50;;
39176;SDS011;24904;52.208;21.192;2022-09-06T10:20:40;1.40;;;0.70;;
39176;SDS011;24904;52.208;21.192;2022-09-06T10:25:50;1.40;;;0.70;;
39176;SDS011;24904;52.208;21.192;2022-09-06T10:36:37;4.70;;;0.60;;
39176;SDS011;24904;52.208;21.192;2022-09-06T10:41:51;1.10;;;0.50;;
39176;SDS011;24904;52.208;21.192;2022-09-06T10:47:05;1.60;;;0.60;;
39176;SDS011;24904;52.208;21.192;2022-09-06T10:52:14;1.40;;;0.50;;
39176;SDS011;24904;52.208;21.192;2022-09-06T10:57:26;3.50;;;0.50;;
39176;SDS011;24904;52.208;21.192;2022-09-06T11:02:42;1.50;;;0.60;;
39176;SDS011;24904;52.208;21.192;2022-09-06T11:07:53;0.60;;;0.40;;
39176;SDS011;24904;52.208;21.192;2022-09-06T11:13:02;4.80;;;0.50;;
39176;SDS011;24904;52.208;21.192;2022-09-06T11:18:13;2.60;;;0.50;;
39176;SDS011;24904;52.208;21.192;2022-09-06T11:23:27;1.50;;;0.80;;
39176;SDS011;24904;52.208;21.192;2022-09-06T11:28:45;1.20;;;0.50;;
39176;SDS011;24904;52.208;21.192;2022-09-06T11:34:05;1.50;;;0.60;;
39176;SDS011;24904;52.208;21.192;2022-09-06T11:39:12;0.90;;;0.50;;
39176;SDS011;24904;52.208;21.192;2022-09-06T11:49:56;0.90;;;0.40;;
39176;SDS011;24904;52.208;21.192;2022-09-06T11:55:01;0.50;;;0.30;;
39176;SDS011;24904;52.208;21.192;2022-09-06T12:00:18;1.10;;;0.50;;
39176;SDS011;24904;52.208;21.192;2022-09-06T12:05:26;1.20;;;0.50;;
39176;SDS011;24904;52.208;21.192;2022-09-06T12:15:57;0.40;;;0.40;;
39176;SDS011;24904;52.208;21.192;2022-09-06T12:21:02;1.80;;;0.60;;
39176;SDS011;24904;52.208;21.192;2022-09-06T12:26:08;2.60;;;0.40;;
39176;SDS011;24904;52.208;21.192;2022-09-06T12:31:28;2.10;;;0.80;;
39176;SDS011;24904;52.208;21.192;2022-09-06T12:36:47;1.40;;;0.50;;
39176;SDS011;24904;52.208;21.192;2022-09-06T12:41:55;3.50;;;0.70;;
39176;SDS011;24904;52.208;21.192;2022-09-06T12:47:03;2.10;;;0.50;;
39176;SDS011;24904;52.208;21.192;2022-09-06T12:52:13;1.00;;;0.50;;
39176;SDS011;24904;52.208;21.192;2022-09-06T13:02:28;4.00;;;0.70;;
39176;SDS011;24904;52.208;21.192;2022-09-06T13:07:42;1.50;;;0.60;;
39176;SDS011;24904;52.208;21.192;2022-09-06T13:12:51;2.50;;;0.60;;
39176;SDS011;24904;52.208;21.192;2022-09-06T13:23:28;1.50;;;0.50;;
39176;SDS011;24904;52.208;21.192;2022-09-06T13:28:42;2.40;;;0.40;;
39176;SDS011;24904;52.208;21.192;2022-09-06T13:33:55;4.00;;;0.70;;
39176;SDS011;24904;52.208;21.192;2022-09-06T13:39:00;1.50;;;0.50;;
39176;SDS011;24904;52.208;21.192;2022-09-06T13:44:06;7.50;;;0.60;;
39176;SDS011;24904;52.208;21.192;2022-09-06T13:49:22;1.60;;;0.60;;
39176;SDS011;24904;52.208;21.192;2022-09-06T13:54:28;1.60;;;0.80;;
39176;SDS011;24904;52.208;21.192;2022-09-06T13:59:34;4.70;;;0.60;;
39176;SDS011;24904;52.208;21.192;2022-09-06T14:04:39;1.40;;;0.50;;
39176;SDS011;24904;52.208;21.192;2022-09-06T14:09:44;2.10;;;0.70;;
39176;SDS011;24904;52.208;21.192;2022-09-06T14:14:51;1.80;;;0.50;;
39176;SDS011;24904;52.208;21.192;2022-09-06T14:19:56;1.10;;;0.40;;
39176;SDS011;24904;52.208;21.192;2022-09-06T14:25:01;1.00;;;0.60;;
39176;SDS011;24904;52.208;21.192;2022-09-06T14:30:08;2.60;;;0.50;;
39176;SDS011;24904;52.208;21.192;2022-09-06T14:35:15;1.40;;;0.50;;
39176;SDS011;24904;52.208;21.192;2022-09-06T14:40:26;0.80;;;0.60;;
39176;SDS011;24904;52.208;21.192;2022-09-06T14:45:31;6.10;;;0.60;;
39176;SDS011;24904;52.208;21.192;2022-09-06T14:50:37;3.30;;;0.50;;
39176;SDS011;24904;52.208;21.192;2022-09-06T14:55:42;1.70;;;0.60;;
39176;SDS011;24904;52.208;21.192;2022-09-06T15:00:47;4.20;;;0.70;;
39176;SDS011;24904;52.208;21.192;2022-09-06T15:05:52;3.80;;;0.70;;
39176;SDS011;24904;52.208;21.192;2022-09-06T15:10:57;2.90;;;0.60;;
39176;SDS011;24904;52.208;21.192;2022-09-06T15:16:03;0.70;;;0.30;;
39176;SDS011;24904;52.208;21.192;2022-09-06T15:21:10;4.40;;;0.60;;
39176;SDS011;24904;52.208;21.192;2022-09-06T15:26:16;1.30;;;0.60;;
39176;SDS011;24904;52.208;21.192;2022-09-06T15:31:22;9.20;;;0.70;;
39176;SDS011;24904;52.208;21.192;2022-09-06T15:36:28;1.30;;;0.70;;
39176;SDS011;24904;52.208;21.192;2022-09-06T15:41:34;2.80;;;0.70;;
39176;SDS011;24904;52.208;21.192;2022-09-06T15:46:42;3.40;;;0.60;;
39176;SDS011;24904;52.208;21.192;2022-09-06T15:56:53;1.00;;;0.40;;
39176;SDS011;24904;52.208;21.192;2022-09-06T16:01:58;4.90;;;0.70;;
39176;SDS011;24904;52.208;21.192;2022-09-06T16:07:04;6.10;;;0.70;;
39176;SDS011;24904;52.208;21.192;2022-09-06T16:12:10;2.00;;;0.60;;
39176;SDS011;24904;52.208;21.192;2022-09-06T16:17:15;3.60;;;0.80;;
39176;SDS011;24904;52.208;21.192;2022-09-06T16:22:23;5.50;;;0.70;;
39176;SDS011;24904;52.208;21.192;2022-09-06T16:27:28;1.60;;;0.70;;
39176;SDS011;24904;52.208;21.192;2022-09-06T16:32:33;3.70;;;0.60;;
39176;SDS011;24904;52.208;21.192;2022-09-06T16:37:38;1.90;;;0.90;;
39176;SDS011;24904;52.208;21.192;2022-09-06T16:42:44;2.90;;;0.90;;
39176;SDS011;24904;52.208;21.192;2022-09-06T16:47:49;4.00;;;0.90;;
39176;SDS011;24904;52.208;21.192;2022-09-06T16:52:57;1.80;;;0.90;;
39176;SDS011;24904;52.208;21.192;2022-09-06T16:58:03;2.00;;;0.70;;
39176;SDS011;24904;52.208;21.192;2022-09-06T17:03:08;6.20;;;1.00;;
39176;SDS011;24904;52.208;21.192;2022-09-06T17:08:15;3.50;;;0.80;;
39176;SDS011;24904;52.208;21.192;2022-09-06T17:13:20;2.70;;;1.30;;
39176;SDS011;24904;52.208;21.192;2022-09-06T17:18:25;6.70;;;1.20;;
39176;SDS011;24904;52.208;21.192;2022-09-06T17:23:30;11.40;;;1.30;;
39176;SDS011;24904;52.208;21.192;2022-09-06T17:28:36;4.00;;;1.30;;
39176;SDS011;24904;52.208;21.192;2022-09-06T17:33:42;10.70;;;1.40;;
39176;SDS011;24904;52.208;21.192;2022-09-06T17:38:51;5.00;;;1.10;;
39176;SDS011;24904;52.208;21.192;2022-09-06T17:44:01;5.80;;;1.20;;
39176;SDS011;24904;52.208;21.192;2022-09-06T17:49:07;3.90;;;1.10;;
39176;SDS011;24904;52.208;21.192;2022-09-06T17:54:13;10.00;;;2.40;;
39176;SDS011;24904;52.208;21.192;2022-09-06T17:59:18;5.30;;;2.20;;
39176;SDS011;24904;52.208;21.192;2022-09-06T18:04:23;8.60;;;1.80;;
39176;SDS011;24904;52.208;21.192;2022-09-06T18:09:29;11.50;;;2.10;;
39176;SDS011;24904;52.208;21.192;2022-09-06T18:14:34;8.90;;;1.80;;
39176;SDS011;24904;52.208;21.192;2022-09-06T18:19:39;5.90;;;1.50;;
39176;SDS011;24904;52.208;21.192;2022-09-06T18:24:45;4.00;;;1.50;;
39176;SDS011;24904;52.208;21.192;2022-09-06T18:29:50;5.10;;;1.30;;
39176;SDS011;24904;52.208;21.192;2022-09-06T18:34:56;11.00;;;2.20;;
39176;SDS011;24904;52.208;21.192;2022-09-06T18:40:02;5.70;;;1.90;;
39176;SDS011;24904;52.208;21.192;2022-09-06T18:45:09;4.50;;;1.90;;
39176;SDS011;24904;52.208;21.192;2022-09-06T18:50:14;7.50;;;2.10;;
39176;SDS011;24904;52.208;21.192;2022-09-06T18:55:19;9.20;;;3.10;;
39176;SDS011;24904;52.208;21.192;2022-09-06T19:00:24;13.90;;;2.10;;
39176;SDS011;24904;52.208;21.192;2022-09-06T19:05:32;9.40;;;2.60;;
39176;SDS011;24904;52.208;21.192;2022-09-06T19:10:38;8.70;;;2.80;;
39176;SDS011;24904;52.208;21.192;2022-09-06T19:15:43;11.40;;;3.80;;
39176;SDS011;24904;52.208;21.192;2022-09-06T19:20:56;10.40;;;3.00;;
39176;SDS011;24904;52.208;21.192;2022-09-06T19:26:03;7.30;;;2.70;;
39176;SDS011;24904;52.208;21.192;2022-09-06T19:31:10;9.10;;;3.40;;
39176;SDS011;24904;52.208;21.192;2022-09-06T19:36:17;9.70;;;3.30;;
39176;SDS011;24904;52.208;21.192;2022-09-06T19:41:23;9.90;;;3.10;;
39176;SDS011;24904;52.208;21.192;2022-09-06T19:46:29;10.80;;;2.70;;
39176;SDS011;24904;52.208;21.192;2022-09-06T19:51:35;8.80;;;2.90;;
39176;SDS011;24904;52.208;21.192;2022-09-06T19:56:41;11.40;;;3.10;;
39176;SDS011;24904;52.208;21.192;2022-09-06T20:01:47;10.90;;;2.80;;
39176;SDS011;24904;52.208;21.192;2022-09-06T20:06:52;8.50;;;3.00;;
39176;SDS011;24904;52.208;21.192;2022-09-06T20:11:58;14.00;;;4.10;;
39176;SDS011;24904;52.208;21.192;2022-09-06T20:17:03;6.40;;;2.90;;
39176;SDS011;24904;52.208;21.192;2022-09-06T20:22:09;7.90;;;3.10;;
39176;SDS011;24904;52.208;21.192;2022-09-06T20:27:14;9.80;;;3.10;;
39176;SDS011;24904;52.208;21.192;2022-09-06T20:32:19;7.90;;;3.70;;
39176;SDS011;24904;52.208;21.192;2022-09-06T20:37:24;11.80;;;3.80;;
39176;SDS011;24904;52.208;21.192;2022-09-06T20:42:30;17.00;;;4.50;;
39176;SDS011;24904;52.208;21.192;2022-09-06T20:47:35;9.70;;;4.70;;
39176;SDS011;24904;52.208;21.192;2022-09-06T20:52:40;15.30;;;4.80;;
39176;SDS011;24904;52.208;21.192;2022-09-06T20:57:46;14.10;;;4.70;;
39176;SDS011;24904;52.208;21.192;2022-09-06T21:02:52;9.70;;;4.80;;
39176;SDS011;24904;52.208;21.192;2022-09-06T21:07:57;10.20;;;5.00;;
39176;SDS011;24904;52.208;21.192;2022-09-06T21:13:02;15.70;;;6.00;;
39176;SDS011;24904;52.208;21.192;2022-09-06T21:18:08;10.30;;;5.30;;
39176;SDS011;24904;52.208;21.192;2022-09-06T21:23:13;12.40;;;5.20;;
39176;SDS011;24904;52.208;21.192;2022-09-06T21:28:18;14.90;;;4.80;;
39176;SDS011;24904;52.208;21.192;2022-09-06T21:33:24;13.70;;;4.80;;
39176;SDS011;24904;52.208;21.192;2022-09-06T21:38:31;12.70;;;5.00;;
39176;SDS011;24904;52.208;21.192;2022-09-06T21:43:36;11.60;;;5.60;;
39176;SDS011;24904;52.208;21.192;2022-09-06T21:48:42;13.10;;;4.80;;
39176;SDS011;24904;52.208;21.192;2022-09-06T21:53:49;11.20;;;4.70;;
39176;SDS011;24904;52.208;21.192;2022-09-06T21:58:55;10.20;;;4.70;;
39176;SDS011;24904;52.208;21.192;2022-09-06T22:04:01;11.30;;;3.90;;
39176;SDS011;24904;52.208;21.192;2022-09-06T22:09:08;12.20;;;4.60;;
39176;SDS011;24904;52.208;21.192;2022-09-06T22:14:14;12.30;;;4.10;;
39176;SDS011;24904;52.208;21.192;2022-09-06T22:19:19;11.80;;;4.60;;
39176;SDS011;24904;52.208;21.192;2022-09-06T22:24:24;10.60;;;4.20;;
39176;SDS011;24904;52.208;21.192;2022-09-06T22:29:29;11.00;;;4.90;;
39176;SDS011;24904;52.208;21.192;2022-09-06T22:34:35;11.70;;;4.70;;
39176;SDS011;24904;52.208;21.192;2022-09-06T22:39:41;13.80;;;4.80;;
39176;SDS011;24904;52.208;21.192;2022-09-06T22:44:46;10.60;;;4.70;;
39176;SDS011;24904;52.208;21.192;2022-09-06T22:49:51;11.30;;;5.40;;
39176;SDS011;24904;52.208;21.192;2022-09-06T22:54:57;10.00;;;5.30;;
39176;SDS011;24904;52.208;21.192;2022-09-06T23:00:03;12.20;;;4.90;;
39176;SDS011;24904;52.208;21.192;2022-09-06T23:05:09;11.10;;;5.10;;
39176;SDS011;24904;52.208;21.192;2022-09-06T23:10:14;13.20;;;4.70;;
39176;SDS011;24904;52.208;21.192;2022-09-06T23:15:20;9.00;;;4.60;;
39176;SDS011;24904;52.208;21.192;2022-09-06T23:20:26;13.80;;;6.00;;
39176;SDS011;24904;52.208;21.192;2022-09-06T23:25:31;10.10;;;5.60;;
39176;SDS011;24904;52.208;21.192;2022-09-06T23:30:40;16.70;;;5.50;;
39176;SDS011;24904;52.208;21.192;2022-09-06T23:35:46;19.20;;;6.10;;
39176;SDS011;24904;52.208;21.192;2022-09-06T23:40:55;12.30;;;6.00;;
39176;SDS011;24904;52.208;21.192;2022-09-06T23:46:00;18.20;;;6.20;;
39176;SDS011;24904;52.208;21.192;2022-09-06T23:51:05;12.00;;;5.60;;
39176;SDS011;24904;52.208;21.192;2022-09-06T23:56:11;14.70;;;5.60;;
